Bw Yarra — 9V3759 — position and weather

sailwx.info

Track history (hours):
 
Tides and Currents Weather Stations Pressure Air Temp Water Temp Dewpoint Dewpoint Depression Visibility Wind Speed Wind Dir Waves Ship Positions

Bw Yarra

Last reported at 2017-Oct-03 03:53 UTC. Time now 2017-Nov-22 16:42 UTC.
Position N 22°51' E 119°55'.
Warning: this ship's position is 50 days out of date.

Length 228 m; draft 8.2 m.

Type: Tanker. MMSI: 563016300.

Date/timePositionNaut miles runAvg speedWind from/ knotsBaromVisibWave heightAir tempDewpointWater temp
2017-Oct-03 03:53N 22°51' E 119°55'513.1
2017-Oct-03 03:30N 22°46' E 119°55'713.5
2017-Oct-03 03:00N 22°40' E 119°55'713.7
2017-Oct-03 02:30N 22°33' E 119°55'713.5
2017-Oct-03 01:59N 22°26' E 119°54'  
2017-Sep-24 09:15N 34°05' E 134°56'312.9
2017-Sep-24 09:00N 34°08' E 134°56'612.1
2017-Sep-24 08:30N 34°14' E 134°58'714.2
2017-Sep-24 07:59N 34°21' E 135°00'714.5
2017-Sep-24 07:30N 34°25' E 135°07'714.5
2017-Sep-24 07:00N 34°29' E 135°14'713.1
2017-Sep-24 06:30N 34°33' E 135°21'4 7.9
2017-Sep-24 06:01N 34°33' E 135°25'  
Track history (hours):
 
Tides and Currents Weather Stations Pressure Air Temp Water Temp Dewpoint Dewpoint Depression Visibility Wind Speed Wind Dir Waves Ship Positions

Bw Yarra

Last reported at 2017-Oct-03 03:53 UTC. Time now 2017-Nov-22 16:42 UTC.
Position N 22°51' E 119°55'.
Warning: this ship's position is 50 days out of date.

Length 228 m; draft 8.2 m.

Type: Tanker. MMSI: 563016300.

Date/timePositionNaut miles runAvg speedWind from/ knotsBaromVisibWave heightAir tempDewpointWater temp
2017-Oct-03 03:53N 22°51' E 119°55'513.1
2017-Oct-03 03:30N 22°46' E 119°55'713.5
2017-Oct-03 03:00N 22°40' E 119°55'713.7
2017-Oct-03 02:30N 22°33' E 119°55'713.5
2017-Oct-03 01:59N 22°26' E 119°54'  
2017-Sep-24 09:15N 34°05' E 134°56'312.9
2017-Sep-24 09:00N 34°08' E 134°56'612.1
2017-Sep-24 08:30N 34°14' E 134°58'714.2
2017-Sep-24 07:59N 34°21' E 135°00'714.5
2017-Sep-24 07:30N 34°25' E 135°07'714.5
2017-Sep-24 07:00N 34°29' E 135°14'713.1
2017-Sep-24 06:30N 34°33' E 135°21'4 7.9
2017-Sep-24 06:01N 34°33' E 135°25'  

Dump ship's entire track history